Time;durP1;ratioP1;P1;durP2;ratioP2;P2;SDS_P1;SDS_P2;PMS_P1;PMS_P2;Temp;Humidity;BMP_temperature;BMP_pressure;BME280_temperature;BME280_humidity;BME280_pressure;Samples;Min_cycle;Max_cycle;Signal;HPM_P1;HPM_P2
2022/03/20 00:06:37;;;;;;;10.67;5.10;;;;;;;-1.61;46.31;102750.47;31480960;28;20143;-80
2022/03/20 00:21:39;;;;;;;8.20;4.90;;;;;;;-1.62;47.06;102751.53;31475665;28;20056;-80
2022/03/20 00:36:42;;;;;;;7.37;3.90;;;;;;;-1.88;47.77;102746.25;31465305;28;20416;-80
2022/03/20 00:51:44;;;;;;;10.97;5.23;;;;;;;-1.95;48.74;102721.00;31470662;28;20055;-79
2022/03/20 01:06:47;;;;;;;10.17;5.77;;;;;;;-2.09;49.40;102704.78;31469418;28;20075;-80
2022/03/20 01:21:50;;;;;;;7.53;4.57;;;;;;;-2.08;48.89;102693.06;31467139;28;20416;-79
2022/03/20 01:36:53;;;;;;;14.67;4.50;;;;;;;-2.24;48.99;102702.16;31462605;28;20045;-80
2022/03/20 01:52:13;;;;;;;13.50;6.00;;;;;;;-2.39;49.24;102704.84;31459334;28;20424;-80
2022/03/20 02:07:16;;;;;;;10.83;5.67;;;;;;;-2.61;49.84;102723.75;31437752;28;20048;-79
2022/03/20 02:22:18;;;;;;;9.77;5.33;;;;;;;-2.57;50.88;102719.47;31454218;28;20052;-80
2022/03/20 02:37:22;;;;;;;12.73;6.03;;;;;;;-2.69;52.72;102717.06;31443517;28;20099;-79
2022/03/20 02:52:49;;;;;;;18.43;6.00;;;;;;;-2.79;51.99;102715.19;31470511;28;20052;-79
2022/03/20 03:23:40;;;;;;;12.90;5.67;;;;;;;-3.11;53.88;102715.44;31469315;28;20313;-80
2022/03/20 03:38:42;;;;;;;12.80;6.20;;;;;;;-3.23;53.80;102712.19;31468556;28;20524;-81
2022/03/20 03:53:44;;;;;;;8.93;5.20;;;;;;;-3.19;53.91;102718.59;31473147;28;20055;-79
2022/03/20 04:08:46;;;;;;;8.87;4.87;;;;;;;-3.28;54.55;102716.69;31474220;28;20067;-79
2022/03/20 04:23:49;;;;;;;12.50;5.23;;;;;;;-3.06;54.63;102721.78;31463922;28;20412;-80
2022/03/20 04:38:54;;;;;;;7.93;5.20;;;;;;;-2.81;55.05;102729.81;31478285;28;20056;-79
2022/03/20 05:24:40;;;;;;;8.97;5.23;;;;;;;-0.99;46.70;102733.13;31460258;28;20059;-80
2022/03/20 05:39:42;;;;;;;7.53;5.17;;;;;;;-0.77;46.15;102746.84;31461451;28;20060;-80
2022/03/20 05:54:44;;;;;;;12.13;5.50;;;;;;;0.30;42.93;102736.78;31451165;28;20048;-79
2022/03/20 06:09:46;;;;;;;10.83;5.27;;;;;;;1.68;39.13;102731.09;31454803;28;20409;-79
2022/03/20 06:24:48;;;;;;;9.17;4.83;;;;;;;2.73;36.03;102740.06;31448632;28;20049;-78
2022/03/20 06:39:51;;;;;;;8.90;4.50;;;;;;;3.44;33.91;102716.16;31470572;28;20093;-78
2022/03/20 06:54:53;;;;;;;5.83;4.00;;;;;;;4.50;31.79;102725.16;31455626;28;20490;-79
2022/03/20 07:09:56;;;;;;;8.10;4.20;;;;;;;5.24;30.71;102709.69;31463643;28;20055;-79
2022/03/20 07:29:29;;;;;;;6.30;4.03;;;;;;;6.32;28.29;102699.56;31510318;28;20052;-80
2022/03/20 07:40:22;;;;;;;5.40;2.97;;;;;;;7.23;24.99;102668.22;31515767;28;20135;-80
2022/03/20 07:55:25;;;;;;;4.87;3.07;;;;;;;7.84;23.27;102669.09;31513530;28;20053;-81
2022/03/20 08:10:32;;;;;;;5.70;2.03;;;;;;;7.47;22.62;102668.28;31511174;28;20492;-81
2022/03/20 08:25:34;;;;;;;4.70;2.53;;;;;;;7.54;22.73;102660.41;31510951;28;20124;-80
2022/03/20 08:40:37;;;;;;;4.10;2.20;;;;;;;7.94;22.48;102657.06;31506252;28;20393;-81
2022/03/20 08:55:40;;;;;;;4.87;2.50;;;;;;;7.66;22.30;102652.31;31473162;28;20048;-81
2022/03/20 09:10:43;;;;;;;3.80;2.50;;;;;;;8.06;21.57;102646.22;31501487;28;20052;-79
2022/03/20 09:25:45;;;;;;;5.67;2.87;;;;;;;8.69;20.49;102655.50;31505377;28;20049;-82
2022/03/20 09:40:49;;;;;;;5.27;2.80;;;;;;;10.17;20.64;102640.69;31499828;28;20045;-81
2022/03/20 09:55:55;;;;;;;6.53;2.60;;;;;;;10.48;19.59;102648.78;31499453;28;20109;-81
2022/03/20 10:11:13;;;;;;;3.53;2.00;;;;;;;9.50;18.83;102618.16;31518398;28;20060;-83
2022/03/20 10:26:17;;;;;;;5.07;2.73;;;;;;;10.30;19.19;102598.75;31526769;28;20040;-84
2022/03/20 10:41:34;;;;;;;4.43;2.00;;;;;;;10.45;17.62;102591.66;31506762;28;20099;-84
2022/03/20 10:56:57;;;;;;;5.17;2.13;;;;;;;9.22;18.40;102575.66;31502225;28;20059;-85
2022/03/20 11:12:04;;;;;;;3.73;2.10;;;;;;;10.43;17.38;102561.34;31476382;28;20585;-85
2022/03/20 11:27:11;;;;;;;5.33;2.30;;;;;;;9.87;17.84;102551.66;31510428;28;20060;-85
2022/03/20 11:42:20;;;;;;;4.60;2.90;;;;;;;10.54;17.75;102530.56;31517124;28;20048;-81
2022/03/20 11:57:30;;;;;;;8.83;5.50;;;;;;;11.19;17.19;102516.94;31531097;28;20077;-84
2022/03/20 12:12:44;;;;;;;18.47;6.73;;;;;;;10.77;17.66;102492.56;31501790;28;20496;-83
2022/03/20 12:27:46;;;;;;;11.33;6.70;;;;;;;8.69;19.52;102500.38;31498370;28;20056;-81
2022/03/20 12:42:56;;;;;;;5.27;3.47;;;;;;;7.91;20.39;102476.53;31487003;28;20144;-84
2022/03/20 12:57:59;;;;;;;4.80;2.93;;;;;;;7.40;21.53;102454.53;31495816;28;20080;-83
2022/03/20 13:13:04;;;;;;;4.67;3.00;;;;;;;7.15;21.82;102449.13;31517128;28;20449;-84
2022/03/20 13:28:06;;;;;;;4.40;2.67;;;;;;;6.92;22.14;102453.41;31558846;28;20041;-76
2022/03/20 13:43:12;;;;;;;3.60;2.40;;;;;;;6.72;21.51;102456.97;31474917;28;20063;-74
2022/03/20 13:58:16;;;;;;;4.72;2.28;;;;;;;6.44;22.38;102436.00;31453585;28;20705;-73
2022/03/20 14:13:27;;;;;;;3.10;2.20;;;;;;;6.35;22.30;102416.44;31481293;28;20089;-76
2022/03/20 14:28:30;;;;;;;5.73;2.07;;;;;;;6.28;22.38;102413.47;31485667;28;20048;-75
2022/03/20 14:43:32;;;;;;;6.83;2.57;;;;;;;6.14;22.48;102410.28;31459567;28;20135;-75
2022/03/20 14:58:34;;;;;;;3.57;2.30;;;;;;;6.07;22.12;102404.66;31413928;28;20053;-74
2022/03/20 15:13:37;;;;;;;8.53;3.27;;;;;;;5.82;22.09;102392.94;31490020;28;20051;-74
2022/03/20 15:28:40;;;;;;;4.80;1.90;;;;;;;5.64;22.21;102391.50;31465224;28;20044;-79
2022/03/20 15:43:45;;;;;;;4.23;2.40;;;;;;;5.44;23.30;102393.06;31441625;28;20092;-75
2022/03/20 15:58:47;;;;;;;5.03;3.47;;;;;;;5.31;23.73;102386.81;31469247;28;20079;-73
2022/03/20 16:13:50;;;;;;;9.93;3.93;;;;;;;5.09;24.76;102392.50;31484652;28;20134;-78
2022/03/20 16:28:53;;;;;;;9.87;4.20;;;;;;;4.79;25.88;102410.50;31486809;28;20049;-74
2022/03/20 16:43:56;;;;;;;15.20;5.20;;;;;;;4.45;27.46;102414.91;31500133;28;20097;-75
2022/03/20 16:59:00;;;;;;;15.27;6.93;;;;;;;4.20;28.17;102426.50;31496288;28;20048;-75
2022/03/20 17:14:03;;;;;;;14.33;5.70;;;;;;;3.99;29.89;102426.38;31474220;28;20083;-73
2022/03/20 17:29:05;;;;;;;17.23;7.10;;;;;;;3.76;30.05;102423.03;31475179;28;20101;-77
2022/03/20 17:44:08;;;;;;;11.50;6.47;;;;;;;3.53;31.19;102416.22;31478697;28;20110;-74
2022/03/20 17:59:32;;;;;;;14.10;7.20;;;;;;;3.48;31.63;102426.31;31465302;28;20493;-73
2022/03/20 18:14:35;;;;;;;14.63;7.50;;;;;;;3.16;32.71;102419.44;31467739;28;20041;-75
2022/03/20 18:29:38;;;;;;;18.33;8.30;;;;;;;2.68;33.55;102426.38;31437411;28;20083;-75
2022/03/20 18:44:41;;;;;;;17.87;8.77;;;;;;;2.49;34.31;102422.31;31441830;28;20094;-73
2022/03/20 18:59:43;;;;;;;12.03;7.07;;;;;;;2.26;34.48;102422.34;31439124;28;20087;-75
2022/03/20 19:14:46;;;;;;;13.13;7.23;;;;;;;2.10;34.32;102415.78;31463127;28;20496;-76
2022/03/20 19:29:49;;;;;;;18.03;7.67;;;;;;;2.05;35.23;102416.69;31459018;28;20052;-76
2022/03/20 19:44:52;;;;;;;15.63;8.33;;;;;;;1.88;36.36;102421.91;31439850;28;20199;-75
2022/03/20 19:59:54;;;;;;;17.07;8.30;;;;;;;1.73;36.42;102411.53;31472118;28;20059;-75
2022/03/20 20:14:57;;;;;;;15.13;7.83;;;;;;;1.60;37.98;102391.75;31472041;28;20056;-74
2022/03/20 20:29:59;;;;;;;15.77;8.40;;;;;;;1.49;37.79;102385.00;31469063;28;20063;-76
2022/03/20 20:45:03;;;;;;;13.60;8.07;;;;;;;1.24;39.89;102388.22;31468522;28;20609;-75
2022/03/20 21:00:06;;;;;;;21.10;8.97;;;;;;;0.95;39.74;102386.66;31467748;28;20052;-74
2022/03/20 21:15:09;;;;;;;17.27;7.77;;;;;;;0.78;41.37;102381.13;31455469;28;20052;-73
2022/03/20 21:30:12;;;;;;;16.47;7.77;;;;;;;0.64;40.99;102372.31;31450506;28;20063;-75
2022/03/20 21:45:15;;;;;;;19.47;9.30;;;;;;;0.42;41.71;102372.97;31459985;28;20071;-75
2022/03/20 22:00:17;;;;;;;21.10;10.27;;;;;;;0.27;43.48;102366.00;31463968;28;20401;-74
2022/03/20 22:15:20;;;;;;;17.63;9.27;;;;;;;0.26;42.82;102364.41;31476308;28;20052;-74
2022/03/20 22:30:22;;;;;;;18.57;8.37;;;;;;;0.23;42.62;102359.66;31478941;28;20053;-73
2022/03/20 22:45:29;;;;;;;14.43;7.43;;;;;;;0.09;43.69;102358.03;31485411;28;20045;-73
2022/03/20 23:00:35;;;;;;;13.23;8.13;;;;;;;0.03;43.58;102354.66;31468792;28;20087;-73
2022/03/20 23:15:38;;;;;;;18.47;9.40;;;;;;;-0.21;44.31;102330.72;31467523;28;20049;-75
2022/03/20 23:30:40;;;;;;;21.20;9.57;;;;;;;-0.18;45.87;102332.03;31487168;28;20769;-75
2022/03/20 23:45:45;;;;;;;14.57;9.03;;;;;;;-0.26;45.78;102303.34;31513738;28;20044;-74
